Time;durP1;ratioP1;P1;durP2;ratioP2;P2;SDS_P1;SDS_P2;PMS_P1;PMS_P2;Temp;Humidity;BMP_temperature;BMP_pressure;BME280_temperature;BME280_humidity;BME280_pressure;Samples;Min_cycle;Max_cycle;Signal;HPM_P1;HPM_P2
2022/03/27 00:02:45;;;;;;;33.97;17.80;;;6.00;72.00;;;;;;4312665;28;657429;-88
2022/03/27 00:05:33;;;;;;;37.53;17.77;;;6.00;44.00;;;;;;4323545;28;659222;-88
2022/03/27 00:08:20;;;;;;;35.87;15.97;;;6.10;1.00;;;;;;4313048;28;658435;-88
2022/03/27 00:11:26;;;;;;;37.40;16.30;;;6.00;1.00;;;;;;4324811;28;658045;-88
2022/03/27 00:14:15;;;;;;;34.10;15.20;;;5.90;99.90;;;;;;4304824;28;658582;-88
2022/03/27 00:17:02;;;;;;;33.67;15.43;;;5.90;99.90;;;;;;4310754;28;659478;-87
2022/03/27 00:19:50;;;;;;;31.70;14.37;;;5.70;1.00;;;;;;4332911;28;658541;-88
2022/03/27 00:22:37;;;;;;;19.97;9.40;;;5.70;1.00;;;;;;4306774;28;658340;-88
2022/03/27 00:25:25;;;;;;;14.90;7.23;;;5.60;99.90;;;;;;4340355;28;656557;-87
2022/03/27 00:28:12;;;;;;;12.00;5.77;;;5.30;99.90;;;;;;4312387;28;658130;-88
2022/03/27 00:31:02;;;;;;;12.10;5.37;;;5.00;99.90;;;;;;4327176;28;657723;-88
2022/03/27 00:33:50;;;;;;;13.27;5.67;;;4.90;99.90;;;;;;4334690;28;657467;-86
2022/03/27 00:36:37;;;;;;;13.27;5.07;;;4.80;99.90;;;;;;4314827;28;658504;-87
2022/03/27 00:39:25;;;;;;;14.37;5.27;;;4.60;99.90;;;;;;4340694;28;657973;-87
2022/03/27 00:42:12;;;;;;;10.53;4.53;;;4.40;99.90;;;;;;4309029;28;658696;-86
2022/03/27 00:44:59;;;;;;;8.13;4.10;;;4.30;57.70;;;;;;4335590;28;657385;-87
2022/03/27 00:47:48;;;;;;;8.53;4.10;;;4.00;99.90;;;;;;4305841;28;657254;-87
2022/03/27 00:50:35;;;;;;;12.13;3.90;;;3.90;99.90;;;;;;4316124;28;656384;-87
2022/03/27 00:53:23;;;;;;;8.67;3.50;;;3.60;99.90;;;;;;4332586;28;658043;-87
2022/03/27 00:56:10;;;;;;;10.53;4.10;;;3.40;44.60;;;;;;4318852;28;656530;-87
2022/03/27 00:58:58;;;;;;;12.07;3.70;;;3.30;99.90;;;;;;4340020;28;659077;-86
2022/03/27 01:01:45;;;;;;;6.63;3.27;;;3.10;99.90;;;;;;4332042;28;657462;-87
2022/03/27 01:04:34;;;;;;;7.67;3.50;;;2.90;99.90;;;;;;4335011;28;657791;-86
2022/03/27 01:07:21;;;;;;;8.67;3.57;;;2.70;99.90;;;;;;4313492;28;656500;-86
2022/03/27 01:10:08;;;;;;;7.57;3.37;;;2.60;99.90;;;;;;4329110;28;657275;-88
2022/03/27 01:12:56;;;;;;;8.90;3.07;;;2.40;99.90;;;;;;4314941;28;656728;-87
2022/03/27 01:15:45;;;;;;;8.37;3.10;;;2.20;99.90;;;;;;4338019;28;657225;-87
2022/03/27 01:18:32;;;;;;;10.55;2.88;;;2.10;99.90;;;;;;4315296;28;656556;-87
2022/03/27 01:21:21;;;;;;;7.00;2.87;;;1.90;99.90;;;;;;4323226;29;657799;-88
2022/03/27 01:24:09;;;;;;;9.40;2.78;;;1.80;99.90;;;;;;4316976;28;657151;-88
2022/03/27 01:26:56;;;;;;;9.73;3.03;;;1.60;1.00;;;;;;4314357;28;656650;-88
2022/03/27 01:29:44;;;;;;;9.17;2.60;;;1.50;1.00;;;;;;4334688;28;655307;-87
2022/03/27 01:32:31;;;;;;;9.20;3.00;;;1.30;1.00;;;;;;4321013;28;655445;-88
2022/03/27 01:35:20;;;;;;;6.63;2.93;;;1.20;1.00;;;;;;4339717;28;656029;-88
2022/03/27 01:38:08;;;;;;;8.67;2.90;;;1.10;1.00;;;;;;4312584;28;656064;-88
2022/03/27 01:40:56;;;;;;;7.43;2.83;;;0.90;1.00;;;;;;4316302;28;655230;-88
2022/03/27 01:43:43;;;;;;;8.23;3.27;;;0.70;1.00;;;;;;4331733;28;655805;-89
2022/03/27 01:46:33;;;;;;;6.55;3.20;;;0.50;1.00;;;;;;4315543;28;655559;-89
2022/03/27 01:49:22;;;;;;;8.97;3.00;;;0.40;72.00;;;;;;4322636;28;655242;-87
2022/03/27 01:52:09;;;;;;;6.53;2.77;;;0.30;99.90;;;;;;4336520;28;656899;-88
2022/03/27 01:54:58;;;;;;;6.57;2.43;;;0.20;99.90;;;;;;4314873;28;656722;-88
2022/03/27 01:57:45;;;;;;;10.17;2.93;;;0.20;99.90;;;;;;4319136;28;656429;-89
2022/03/27 02:00:33;;;;;;;8.40;3.27;;;0.10;99.90;;;;;;4329941;28;659103;-89
2022/03/27 02:03:21;;;;;;;9.05;2.60;;;0.00;99.90;;;;;;4320633;28;657075;-88
2022/03/27 02:06:08;;;;;;;8.07;3.10;;;-0.10;99.90;;;;;;4334649;28;657682;-90
2022/03/27 02:08:55;;;;;;;7.90;2.77;;;-0.20;99.90;;;;;;4318804;28;657840;-89
2022/03/27 02:11:44;;;;;;;5.27;2.83;;;-0.20;1.00;;;;;;4333319;28;658413;-89
2022/03/27 02:14:32;;;;;;;11.63;3.10;;;-0.30;1.00;;;;;;4319181;28;656500;-89
2022/03/27 02:17:19;;;;;;;5.73;2.90;;;-0.40;1.00;;;;;;4339849;28;657446;-90
2022/03/27 02:20:07;;;;;;;13.63;3.30;;;-0.40;1.00;;;;;;4314506;28;656575;-89
2022/03/27 02:22:55;;;;;;;16.50;3.63;;;-0.50;1.00;;;;;;4331244;28;658098;-89
2022/03/27 02:25:43;;;;;;;9.13;3.30;;;-0.60;1.00;;;;;;4338542;28;658398;-89
2022/03/27 02:28:32;;;;;;;7.43;2.93;;;-0.70;1.00;;;;;;4323820;28;656696;-89
2022/03/27 02:31:19;;;;;;;9.52;2.88;;;-0.90;99.90;;;;;;4337669;28;657202;-88
2022/03/27 02:34:06;;;;;;;11.00;3.30;;;-0.90;99.90;;;;;;4305994;28;657512;-89
2022/03/27 02:36:54;;;;;;;8.90;3.03;;;-1.00;1.00;;;;;;4331943;28;659037;-88
2022/03/27 02:39:41;;;;;;;11.97;3.07;;;-1.00;99.90;;;;;;4315909;28;656733;-89
2022/03/27 02:42:29;;;;;;;7.07;2.80;;;-1.00;99.90;;;;;;4327383;28;658862;-90
2022/03/27 02:45:18;;;;;;;9.13;2.77;;;-1.20;99.90;;;;;;4318271;28;658056;-89
2022/03/27 02:48:06;;;;;;;12.30;3.10;;;-1.30;99.90;;;;;;4327932;28;657567;-89
2022/03/27 02:50:53;;;;;;;8.77;3.10;;;-1.40;1.00;;;;;;4333752;28;658657;-92
2022/03/27 02:53:41;;;;;;;5.97;2.87;;;-1.50;99.90;;;;;;4315090;28;657123;-91
2022/03/27 02:56:28;;;;;;;7.57;3.07;;;-1.50;1.00;;;;;;4329025;28;657754;-93
2022/03/27 02:59:16;;;;;;;9.20;3.00;;;-1.50;1.00;;;;;;4313774;28;657365;-92
2022/03/27 03:02:06;;;;;;;7.87;3.30;;;-1.50;1.00;;;;;;4333868;28;656975;-92
2022/03/27 03:04:55;;;;;;;10.97;2.93;;;-1.60;99.90;;;;;;4305675;28;657420;-91
2022/03/27 03:07:42;;;;;;;9.63;3.20;;;-1.60;99.90;;;;;;4312626;28;658617;-92
2022/03/27 03:10:30;;;;;;;9.23;3.07;;;-1.70;1.00;;;;;;4329837;28;657974;-95
2022/03/27 03:13:17;;;;;;;9.37;2.97;;;-1.70;1.00;;;;;;4311082;28;657421;-94
2022/03/27 03:16:05;;;;;;;7.90;2.80;;;-1.90;1.00;;;;;;4331809;28;657098;-93
2022/03/27 03:18:54;;;;;;;8.50;3.13;;;-1.90;99.90;;;;;;4313916;28;657507;-94
2022/03/27 03:21:42;;;;;;;15.80;2.97;;;-1.90;99.90;;;;;;4312021;28;657534;-94
2022/03/27 03:24:30;;;;;;;10.90;3.20;;;-1.90;59.70;;;;;;4333384;28;658882;-96
2022/03/27 03:27:17;;;;;;;7.57;2.80;;;-2.00;64.90;;;;;;4313689;28;658938;-95
2022/03/27 03:30:06;;;;;;;10.50;2.73;;;-2.10;79.60;;;;;;4327085;28;657882;-95
2022/03/27 03:32:54;;;;;;;9.57;2.80;;;-2.20;99.90;;;;;;4328057;28;659129;-95
2022/03/27 03:35:43;;;;;;;10.43;2.87;;;-2.30;99.90;;;;;;4312034;28;657386;-94
2022/03/27 03:38:30;;;;;;;7.80;2.90;;;-2.30;1.00;;;;;;4312764;28;658671;-93
2022/03/27 03:41:19;;;;;;;7.63;2.83;;;-2.30;1.00;;;;;;4311479;28;657837;-96
2022/03/27 03:44:07;;;;;;;10.77;3.13;;;-2.30;99.90;;;;;;4304626;28;656693;-93
2022/03/27 03:46:55;;;;;;;8.07;3.13;;;-2.40;99.90;;;;;;4335057;28;658918;-92
2022/03/27 03:49:42;;;;;;;14.63;2.90;;;-2.40;99.90;;;;;;4299671;28;658376;-93
2022/03/27 03:52:32;;;;;;;13.83;3.40;;;-2.40;99.90;;;;;;4314386;28;659489;-89
2022/03/27 03:55:19;;;;;;;17.50;5.97;;;-2.40;1.00;;;;;;4340295;28;659407;-93
2022/03/27 03:58:07;;;;;;;22.53;8.60;;;-2.50;1.00;;;;;;4314706;28;657337;-93
2022/03/27 04:00:54;;;;;;;24.57;7.90;;;-2.50;1.00;;;;;;4334841;28;657851;-94
2022/03/27 04:03:42;;;;;;;48.90;14.93;;;-2.50;1.00;;;;;;4311061;28;657649;-93
2022/03/27 04:06:29;;;;;;;30.27;10.60;;;-2.50;1.00;;;;;;4325361;28;658993;-96
2022/03/27 04:09:20;;;;;;;43.53;14.03;;;-2.50;1.00;;;;;;4311703;28;658636;-96
2022/03/27 04:12:08;;;;;;;50.53;16.90;;;-2.60;1.00;;;;;;4309094;28;659795;-94
2022/03/27 04:14:56;;;;;;;59.40;19.67;;;-2.60;1.00;;;;;;4314001;28;658560;-92
2022/03/27 04:17:44;;;;;;;65.37;21.50;;;-2.60;1.00;;;;;;4336053;28;658893;-94
2022/03/27 04:20:31;;;;;;;46.38;15.88;;;-2.60;1.00;;;;;;4315524;28;658669;-93
2022/03/27 04:23:19;;;;;;;32.10;9.80;;;-2.60;43.20;;;;;;4335556;28;659295;-92
2022/03/27 04:26:08;;;;;;;18.10;5.97;;;-2.60;1.00;;;;;;4319874;28;658956;-93
2022/03/27 04:28:55;;;;;;;15.02;4.28;;;-2.70;1.00;;;;;;4319237;28;657375;-90
2022/03/27 04:31:43;;;;;;;15.40;3.60;;;-2.70;1.00;;;;;;4333366;28;658044;-95
2022/03/27 04:34:31;;;;;;;5.23;2.40;;;-2.70;1.00;;;;;;4311172;28;657591;-93
2022/03/27 04:37:18;;;;;;;7.93;2.30;;;-2.70;1.00;;;;;;4336723;28;657222;-91
2022/03/27 04:40:06;;;;;;;7.63;1.90;;;-2.70;1.00;;;;;;4317392;28;656611;-90
2022/03/27 04:42:55;;;;;;;11.07;2.43;;;-2.60;1.00;;;;;;4339806;28;657200;-91
2022/03/27 04:45:43;;;;;;;7.37;2.07;;;-2.70;1.00;;;;;;4300807;28;658045;-92
2022/03/27 04:48:30;;;;;;;8.90;2.60;;;-2.60;99.90;;;;;;4324153;28;656697;-89
2022/03/27 04:51:18;;;;;;;15.60;3.10;;;-2.60;1.00;;;;;;4326282;28;658998;-90
2022/03/27 04:54:05;;;;;;;10.35;2.97;;;-2.70;99.90;;;;;;4307796;28;658006;-91
2022/03/27 04:56:53;;;;;;;11.33;3.43;;;-2.70;1.00;;;;;;4331184;28;659043;-91
2022/03/27 04:59:42;;;;;;;7.20;2.22;;;-2.60;99.90;;;;;;4323453;28;657713;-91
2022/03/27 05:02:29;;;;;;;4.90;1.57;;;-2.60;1.00;;;;;;4325265;28;657779;-91
2022/03/27 05:05:17;;;;;;;7.13;1.80;;;-2.50;31.30;;;;;;4303611;28;657143;-91
2022/03/27 05:08:04;;;;;;;6.03;1.93;;;-2.40;1.00;;;;;;4340157;28;657900;-90
2022/03/27 05:10:52;;;;;;;7.03;1.60;;;-2.40;99.90;;;;;;4317528;28;656598;-88
2022/03/27 05:13:39;;;;;;;18.57;1.83;;;-2.30;1.00;;;;;;4343688;28;657582;-89
2022/03/27 05:16:28;;;;;;;5.53;1.53;;;-2.10;1.00;;;;;;4316944;28;657454;-88
2022/03/27 05:19:15;;;;;;;8.38;1.92;;;-2.00;1.00;;;;;;4319537;28;656702;-90
2022/03/27 05:22:03;;;;;;;3.43;1.60;;;-1.90;1.00;;;;;;4333038;28;657839;-90
2022/03/27 05:24:52;;;;;;;4.80;1.60;;;-1.80;1.00;;;;;;4312297;28;656826;-90
2022/03/27 05:27:46;;;;;;;4.03;1.40;;;-1.70;99.90;;;;;;4335272;28;656818;-89
2022/03/27 05:30:34;;;;;;;8.73;1.93;;;-1.50;99.90;;;;;;4307630;28;657902;-90
2022/03/27 05:33:23;;;;;;;4.17;1.37;;;-1.40;1.00;;;;;;4305142;28;658043;-89
2022/03/27 05:36:10;;;;;;;7.33;1.30;;;-1.30;1.00;;;;;;4313228;28;656638;-89
2022/03/27 05:38:58;;;;;;;5.10;1.23;;;-1.20;1.00;;;;;;4319820;28;657309;-90
2022/03/27 05:41:45;;;;;;;7.40;1.57;;;-1.00;99.90;;;;;;4307458;28;656801;-89
2022/03/27 05:44:33;;;;;;;10.47;2.13;;;-0.90;15.20;;;;;;4322701;28;658582;-88
2022/03/27 05:47:20;;;;;;;5.70;1.52;;;-0.70;99.90;;;;;;4300308;29;658912;-87
2022/03/27 05:50:10;;;;;;;7.20;1.87;;;-0.50;1.00;;;;;;4322258;28;658938;-88
2022/03/27 05:52:58;;;;;;;6.63;1.53;;;-0.30;99.90;;;;;;4297989;28;657221;-88
2022/03/27 05:55:47;;;;;;;15.30;1.80;;;-0.20;99.90;;;;;;4314522;28;658226;-90
2022/03/27 05:58:35;;;;;;;7.70;1.60;;;0.00;99.90;;;;;;4321768;28;658583;-89
2022/03/27 06:01:23;;;;;;;3.77;1.50;;;0.20;68.30;;;;;;4299186;28;656581;-89
2022/03/27 06:04:10;;;;;;;9.70;1.87;;;0.40;1.00;;;;;;4309317;28;656718;-89
2022/03/27 06:06:59;;;;;;;7.10;1.57;;;0.50;1.00;;;;;;4328326;28;655722;-89
2022/03/27 06:09:47;;;;;;;10.00;2.53;;;0.70;99.90;;;;;;4297805;28;655531;-89
2022/03/27 06:12:35;;;;;;;14.00;3.40;;;0.90;99.90;;;;;;4322163;28;657639;-89
2022/03/27 06:15:22;;;;;;;6.50;2.10;;;1.10;1.00;;;;;;4299201;29;657514;-89
2022/03/27 06:18:10;;;;;;;7.83;2.80;;;1.30;1.00;;;;;;4329389;29;655671;-90
2022/03/27 06:20:57;;;;;;;10.40;3.35;;;1.60;1.00;;;;;;4307792;28;655752;-90
2022/03/27 06:23:47;;;;;;;7.97;1.90;;;1.80;99.90;;;;;;4317557;28;657258;-90
2022/03/27 06:26:34;;;;;;;6.80;2.10;;;2.00;99.90;;;;;;4317941;29;657300;-90
2022/03/27 06:29:21;;;;;;;5.87;1.90;;;2.20;18.20;;;;;;4295178;28;656701;-89
2022/03/27 06:32:10;;;;;;;10.13;1.80;;;2.40;1.00;;;;;;4313401;29;656676;-89
2022/03/27 06:34:58;;;;;;;4.47;2.17;;;2.60;1.00;;;;;;4299314;29;656996;-88
2022/03/27 06:37:45;;;;;;;9.07;2.27;;;2.80;1.00;;;;;;4304156;28;655513;-87
2022/03/27 06:40:34;;;;;;;5.93;1.83;;;3.00;1.00;;;;;;4323329;29;655791;-87
2022/03/27 06:43:22;;;;;;;2.53;0.90;;;3.20;1.00;;;;;;4298818;29;656078;-88
2022/03/27 06:46:15;;;;;;;4.70;1.30;;;3.40;1.00;;;;;;4319929;29;655429;-88
2022/03/27 06:49:02;;;;;;;2.20;0.90;;;3.60;1.00;;;;;;4292725;29;655940;-88
2022/03/27 06:51:50;;;;;;;2.97;0.80;;;3.90;1.00;;;;;;4323290;28;655263;-87
2022/03/27 06:54:37;;;;;;;1.90;0.90;;;4.10;1.00;;;;;;4289320;29;656162;-87
2022/03/27 06:57:26;;;;;;;2.50;0.90;;;4.30;1.00;;;;;;4305515;29;655368;-88
2022/03/27 07:03:20;;;;;;;1.43;0.33;;;4.80;1.00;;;;;;4255614;28;655771;-88
2022/03/27 07:06:08;;;;;;;1.83;0.70;;;4.90;1.00;;;;;;4305694;28;655585;-88
2022/03/27 07:08:56;;;;;;;2.75;0.73;;;5.10;1.00;;;;;;4310593;28;655494;-89
2022/03/27 07:11:43;;;;;;;3.20;0.93;;;5.30;1.00;;;;;;4324173;28;656751;-87
2022/03/27 07:14:32;;;;;;;2.57;0.63;;;5.40;1.00;;;;;;4301532;29;655458;-88
2022/03/27 07:17:19;;;;;;;2.37;0.80;;;5.60;1.00;;;;;;4314761;29;655484;-87
2022/03/27 07:20:08;;;;;;;1.93;0.73;;;5.70;1.00;;;;;;4303771;28;655923;-88
2022/03/27 07:22:57;;;;;;;1.65;0.60;;;5.80;26.00;;;;;;4290263;29;655361;-89
2022/03/27 07:25:45;;;;;;;3.10;0.80;;;6.00;1.00;;;;;;4314539;29;656438;-92
2022/03/27 07:28:35;;;;;;;2.87;0.70;;;6.20;1.00;;;;;;4296991;28;656092;-90
2022/03/27 07:31:23;;;;;;;2.57;0.73;;;6.30;1.00;;;;;;4303296;29;656770;-87
2022/03/27 07:34:11;;;;;;;3.93;0.90;;;6.30;1.00;;;;;;4300048;28;655446;-88
2022/03/27 07:36:58;;;;;;;5.18;0.93;;;6.50;1.00;;;;;;4326249;28;656221;-90
2022/03/27 07:39:46;;;;;;;5.43;0.60;;;6.60;10.40;;;;;;4295499;28;655619;-89
2022/03/27 07:42:34;;;;;;;5.10;0.80;;;6.70;79.20;;;;;;4326498;29;657178;-90
2022/03/27 07:45:24;;;;;;;2.67;0.60;;;6.80;1.00;;;;;;4302619;29;656819;-88
2022/03/27 07:48:12;;;;;;;2.43;0.80;;;6.90;1.00;;;;;;4308172;29;655752;-90
2022/03/27 07:51:00;;;;;;;4.17;0.80;;;7.10;1.00;;;;;;4321120;28;655701;-89
2022/03/27 07:53:48;;;;;;;4.03;0.93;;;7.20;1.00;;;;;;4328419;28;655951;-89
2022/03/27 07:56:36;;;;;;;1.50;0.80;;;7.30;1.00;;;;;;4304687;28;655808;-90
2022/03/27 07:59:25;;;;;;;2.90;0.73;;;7.40;1.00;;;;;;4318229;28;655749;-89
2022/03/27 08:02:12;;;;;;;1.20;0.80;;;7.50;1.00;;;;;;4302006;29;655997;-87
2022/03/27 08:05:01;;;;;;;2.60;0.63;;;7.80;1.00;;;;;;4326652;29;655248;-87
2022/03/27 08:07:48;;;;;;;3.77;1.17;;;7.90;1.00;;;;;;4307005;28;656000;-87
2022/03/27 08:10:36;;;;;;;1.63;0.80;;;8.00;1.00;;;;;;4291333;29;655695;-87
2022/03/27 08:13:24;;;;;;;4.60;1.20;;;8.10;1.00;;;;;;4327043;28;655691;-87
2022/03/27 08:16:11;;;;;;;3.93;1.10;;;8.30;1.00;;;;;;4304441;29;655581;-88
2022/03/27 08:18:58;;;;;;;0.83;0.50;;;8.40;1.00;;;;;;4331559;28;656260;-89
2022/03/27 08:21:47;;;;;;;3.80;1.20;;;8.50;1.00;;;;;;4305111;29;655938;-87
2022/03/27 08:24:35;;;;;;;2.70;0.90;;;8.60;1.00;;;;;;4329630;28;655414;-87
2022/03/27 08:27:22;;;;;;;2.37;1.00;;;8.70;1.00;;;;;;4301828;29;656017;-87
2022/03/27 08:30:11;;;;;;;3.27;1.33;;;8.80;1.00;;;;;;4321194;29;656247;-87
2022/03/27 08:32:59;;;;;;;1.97;0.63;;;9.10;1.00;;;;;;4304405;28;655523;-88
2022/03/27 08:35:46;;;;;;;2.83;0.93;;;9.30;1.00;;;;;;4293492;29;655933;-88
2022/03/27 08:38:35;;;;;;;3.17;0.93;;;9.50;1.00;;;;;;4316763;29;656101;-87
2022/03/27 08:41:22;;;;;;;2.30;0.70;;;9.60;1.00;;;;;;4298156;29;656676;-87
2022/03/27 08:44:11;;;;;;;2.83;0.80;;;9.70;1.00;;;;;;4314775;29;655378;-87
2022/03/27 08:46:59;;;;;;;3.03;0.60;;;9.90;1.00;;;;;;4326570;29;655883;-87
2022/03/27 08:49:50;;;;;;;1.98;0.80;;;9.90;1.00;;;;;;4301449;28;655537;-85
2022/03/27 08:52:43;;;;;;;1.97;0.80;;;10.10;1.00;;;;;;4293108;28;656385;-86
2022/03/27 08:55:39;;;;;;;2.67;0.80;;;10.10;1.00;;;;;;4315659;28;656695;-86
2022/03/27 08:58:31;;;;;;;1.73;0.80;;;10.10;1.00;;;;;;4297967;28;657548;-86
2022/03/27 09:01:18;;;;;;;3.40;0.60;;;10.20;1.00;;;;;;4309302;29;657862;-86
2022/03/27 09:04:06;;;;;;;1.53;0.80;;;10.30;1.00;;;;;;4297365;28;657349;-87
2022/03/27 09:06:53;;;;;;;2.87;0.80;;;10.50;1.00;;;;;;4327981;28;657102;-86
2022/03/27 09:09:41;;;;;;;2.73;0.87;;;10.60;1.00;;;;;;4295495;28;656721;-86
2022/03/27 09:12:29;;;;;;;3.30;0.90;;;10.80;1.00;;;;;;4325539;28;657409;-86
2022/03/27 09:15:19;;;;;;;1.60;0.67;;;11.10;1.00;;;;;;4299618;28;656634;-86
2022/03/27 09:18:08;;;;;;;2.60;0.70;;;11.00;1.00;;;;;;4296277;28;656688;-86
2022/03/27 09:20:56;;;;;;;5.47;0.90;;;10.80;1.00;;;;;;4305381;29;656479;-86
2022/03/27 09:23:43;;;;;;;4.10;0.80;;;10.80;1.00;;;;;;4317803;29;656638;-86
2022/03/27 09:26:32;;;;;;;2.47;0.60;;;10.90;1.00;;;;;;4298813;28;656669;-87
2022/03/27 09:29:59;;;;;;;1.17;0.50;;;11.20;1.00;;;;;;4331457;28;656424;-87
2022/03/27 09:32:47;;;;;;;2.63;0.77;;;11.20;1.00;;;;;;4315610;28;657335;-87
2022/03/27 09:35:36;;;;;;;2.73;0.40;;;11.10;1.00;;;;;;4340265;28;656314;-87
2022/03/27 09:42:07;;;;;;;1.37;0.60;;;11.50;1.00;;;;;;4308220;28;656718;-87
2022/03/27 09:45:18;;;;;;;2.30;0.80;;;11.50;1.00;;;;;;4311642;28;656973;-87
2022/03/27 09:48:09;;;;;;;2.40;0.83;;;11.50;1.00;;;;;;4319406;28;656352;-87
2022/03/27 09:51:01;;;;;;;1.33;0.60;;;11.30;1.00;;;;;;4316900;28;656961;-88
2022/03/27 09:53:48;;;;;;;3.30;0.80;;;11.60;1.00;;;;;;4322405;28;657864;-87
2022/03/27 09:56:35;;;;;;;1.83;0.70;;;12.10;1.00;;;;;;4315737;28;656502;-87
2022/03/27 09:59:30;;;;;;;2.63;0.73;;;12.30;1.00;;;;;;4317933;28;656987;-86
2022/03/27 10:02:24;;;;;;;2.90;0.50;;;12.40;1.00;;;;;;4314064;28;656901;-86
2022/03/27 10:05:12;;;;;;;3.87;1.00;;;12.50;1.00;;;;;;4316203;28;656303;-87
2022/03/27 10:08:00;;;;;;;3.80;0.97;;;12.60;1.00;;;;;;4331895;28;656787;-86
2022/03/27 10:10:47;;;;;;;4.03;0.80;;;12.60;1.00;;;;;;4312891;28;657112;-87
2022/03/27 10:13:35;;;;;;;1.57;0.70;;;13.10;1.00;;;;;;4332775;28;656660;-86
2022/03/27 10:16:28;;;;;;;3.13;0.80;;;13.40;1.00;;;;;;4340605;28;657016;-87
2022/03/27 10:19:25;;;;;;;1.33;0.60;;;13.60;1.00;;;;;;4295032;28;656766;-87
2022/03/27 10:22:13;;;;;;;2.43;0.80;;;13.90;1.00;;;;;;4312393;28;656946;-86
2022/03/27 10:25:05;;;;;;;2.50;0.80;;;13.90;1.00;;;;;;4315822;28;656894;-87
2022/03/27 10:27:52;;;;;;;3.43;0.67;;;13.70;1.00;;;;;;4313331;28;657322;-86
2022/03/27 10:30:41;;;;;;;2.87;0.47;;;13.70;1.00;;;;;;4316542;28;656258;-86
2022/03/27 10:33:29;;;;;;;2.00;0.40;;;13.30;1.00;;;;;;4299976;29;657267;-87
2022/03/27 10:36:21;;;;;;;2.57;0.70;;;12.40;1.00;;;;;;4292906;29;656959;-86
2022/03/27 10:39:12;;;;;;;1.07;0.70;;;12.10;1.00;;;;;;4296724;28;656446;-87
2022/03/27 10:42:04;;;;;;;2.07;0.80;;;12.40;1.00;;;;;;4296590;28;656619;-89
2022/03/27 10:44:54;;;;;;;1.23;0.63;;;12.30;1.00;;;;;;4281736;28;657026;-87
2022/03/27 10:47:42;;;;;;;1.70;0.70;;;12.40;1.00;;;;;;4291803;28;656535;-87
2022/03/27 10:50:29;;;;;;;2.40;0.90;;;12.70;1.00;;;;;;4328195;28;656900;-87
2022/03/27 10:53:19;;;;;;;3.40;1.10;;;13.50;1.00;;;;;;4301959;28;656450;-87
2022/03/27 10:56:06;;;;;;;4.10;1.00;;;14.00;1.00;;;;;;4308238;29;656827;-87
2022/03/27 10:58:58;;;;;;;5.13;1.30;;;13.90;1.00;;;;;;4330317;29;656903;-87
2022/03/27 11:01:47;;;;;;;3.23;1.00;;;14.30;1.00;;;;;;4323463;28;656555;-89
2022/03/27 11:04:37;;;;;;;6.17;1.10;;;14.40;1.00;;;;;;4347217;28;656699;-89
2022/03/27 11:07:25;;;;;;;1.00;0.70;;;14.70;1.00;;;;;;4338380;28;656847;-89
2022/03/27 11:10:40;;;;;;;2.43;0.80;;;14.90;1.00;;;;;;4317245;29;657780;-87
2022/03/27 11:13:39;;;;;;;2.30;0.90;;;15.30;1.00;;;;;;4307918;29;656457;-87
2022/03/27 11:16:29;;;;;;;2.77;0.80;;;15.70;1.00;;;;;;4307021;29;656750;-87
2022/03/27 11:19:40;;;;;;;1.63;0.80;;;15.60;1.00;;;;;;4307306;29;656598;-87
2022/03/27 11:22:59;;;;;;;2.63;0.90;;;15.00;1.00;;;;;;4304154;29;656878;-87
2022/03/27 11:25:48;;;;;;;2.90;1.00;;;15.10;1.00;;;;;;4238679;29;656426;-87
2022/03/27 11:28:47;;;;;;;5.73;1.00;;;15.00;1.00;;;;;;4259155;29;656799;-89
2022/03/27 11:31:35;;;;;;;3.10;0.90;;;15.50;1.00;;;;;;4257679;29;656641;-89
2022/03/27 11:34:26;;;;;;;2.50;0.93;;;15.80;1.00;;;;;;4255440;29;657668;-89
2022/03/27 11:37:15;;;;;;;2.60;0.80;;;15.60;1.00;;;;;;4253997;29;656907;-89
2022/03/27 11:40:02;;;;;;;1.60;0.83;;;15.20;1.00;;;;;;4237931;29;657231;-88
2022/03/27 11:42:52;;;;;;;1.83;1.00;;;15.10;1.00;;;;;;4263307;29;656739;-88
2022/03/27 11:45:39;;;;;;;7.57;1.00;;;15.00;1.00;;;;;;4238419;29;657084;-88
2022/03/27 11:48:26;;;;;;;2.93;0.80;;;15.10;1.00;;;;;;4238821;29;656290;-88
2022/03/27 11:51:15;;;;;;;3.47;0.80;;;15.10;1.00;;;;;;4259570;29;656383;-88
2022/03/27 11:54:03;;;;;;;4.27;0.90;;;15.10;1.00;;;;;;4246632;29;657760;-88
2022/03/27 11:56:53;;;;;;;3.10;1.00;;;15.20;1.00;;;;;;4259299;29;656939;-88
2022/03/27 11:59:50;;;;;;;4.83;1.10;;;15.60;1.00;;;;;;4256668;29;656901;-87
2022/03/27 12:02:41;;;;;;;4.43;1.07;;;15.70;1.00;;;;;;4270800;28;656931;-87
2022/03/27 12:05:36;;;;;;;2.43;0.90;;;16.20;1.00;;;;;;4323494;28;657423;-87
2022/03/27 12:08:32;;;;;;;2.50;0.80;;;16.20;1.00;;;;;;4318999;28;656703;-87
2022/03/27 12:11:22;;;;;;;1.70;0.90;;;16.20;1.00;;;;;;4303815;29;656510;-88
2022/03/27 12:14:11;;;;;;;3.97;1.10;;;16.20;1.00;;;;;;4306903;29;656736;-87
2022/03/27 12:17:00;;;;;;;2.03;0.90;;;16.50;1.00;;;;;;4311549;28;656469;-88
2022/03/27 12:20:00;;;;;;;4.07;0.87;;;16.40;1.00;;;;;;4309512;29;656638;-87
2022/03/27 12:22:49;;;;;;;3.77;1.03;;;16.20;1.00;;;;;;4309674;29;657450;-87
2022/03/27 12:25:37;;;;;;;5.17;1.43;;;15.80;1.00;;;;;;4311447;28;656862;-86
2022/03/27 12:31:29;;;;;;;2.50;1.20;;;15.80;1.00;;;;;;4309826;29;656615;-87
2022/03/27 12:34:18;;;;;;;3.77;1.20;;;16.10;1.00;;;;;;4310082;29;656744;-87
2022/03/27 12:37:10;;;;;;;2.83;0.93;;;16.20;1.00;;;;;;4311423;28;656499;-86
2022/03/27 12:40:09;;;;;;;1.93;0.90;;;16.40;1.00;;;;;;4326758;28;657615;-88
2022/03/27 12:42:58;;;;;;;1.77;0.90;;;16.30;1.00;;;;;;4326766;28;656381;-87
2022/03/27 12:49:14;;;;;;;2.93;1.17;;;15.90;1.00;;;;;;4324090;28;656828;-87
2022/03/27 12:52:03;;;;;;;3.00;1.10;;;15.80;1.00;;;;;;4318147;28;656572;-88
2022/03/27 12:55:03;;;;;;;2.60;1.00;;;15.80;1.00;;;;;;4320483;28;656469;-86
2022/03/27 12:57:55;;;;;;;2.57;1.00;;;16.60;1.00;;;;;;4291220;28;656723;-86
2022/03/27 13:00:43;;;;;;;3.50;1.10;;;16.90;1.00;;;;;;4312614;28;656777;-87
2022/03/27 13:03:30;;;;;;;4.57;1.27;;;16.90;1.00;;;;;;4310327;28;656524;-88
2022/03/27 13:06:43;;;;;;;2.77;1.10;;;17.10;1.00;;;;;;4336281;28;657073;-87
2022/03/27 13:09:34;;;;;;;4.83;1.10;;;17.20;1.00;;;;;;4311862;28;657017;-86
2022/03/27 13:12:21;;;;;;;3.37;1.17;;;16.30;1.00;;;;;;4322729;28;656567;-86
2022/03/27 13:15:09;;;;;;;5.63;1.50;;;16.20;1.00;;;;;;4332039;28;657519;-87
2022/03/27 13:18:06;;;;;;;3.77;1.20;;;16.10;1.00;;;;;;4315214;28;656485;-88
2022/03/27 13:20:53;;;;;;;3.80;1.20;;;16.40;1.00;;;;;;4307879;28;656384;-87
2022/03/27 13:23:41;;;;;;;5.47;1.07;;;16.60;1.00;;;;;;4317624;28;656290;-87
2022/03/27 13:26:30;;;;;;;3.33;1.30;;;16.30;1.00;;;;;;4344553;28;657432;-87
2022/03/27 13:29:18;;;;;;;2.33;1.03;;;15.70;1.00;;;;;;4322286;28;657097;-87
2022/03/27 13:32:07;;;;;;;3.97;1.10;;;15.80;1.00;;;;;;4322105;28;656983;-88
2022/03/27 13:34:54;;;;;;;4.13;1.30;;;16.00;1.00;;;;;;4332991;28;655973;-87
2022/03/27 13:37:42;;;;;;;4.00;1.30;;;17.10;1.00;;;;;;4312742;28;656854;-87
2022/03/27 13:43:37;;;;;;;3.27;1.30;;;18.10;1.00;;;;;;4296680;28;656798;-86
2022/03/27 13:46:24;;;;;;;4.47;1.60;;;18.50;1.00;;;;;;4333885;28;656220;-86
2022/03/27 13:49:11;;;;;;;3.60;1.30;;;18.20;1.00;;;;;;4314200;28;656412;-86
2022/03/27 13:51:59;;;;;;;4.97;1.30;;;17.80;1.00;;;;;;4324688;28;656373;-86
2022/03/27 13:54:46;;;;;;;4.33;1.40;;;17.20;1.00;;;;;;4311674;28;656901;-84
2022/03/27 13:57:34;;;;;;;2.43;1.23;;;16.80;1.00;;;;;;4332223;28;656900;-84
2022/03/27 14:00:22;;;;;;;3.53;1.47;;;17.10;1.00;;;;;;4305327;28;657005;-85
2022/03/27 14:03:10;;;;;;;4.47;1.50;;;17.20;1.00;;;;;;4341432;28;656902;-85
2022/03/27 14:05:58;;;;;;;4.17;1.47;;;17.60;1.00;;;;;;4325764;28;657264;-85
2022/03/27 14:08:46;;;;;;;2.70;1.30;;;17.20;1.00;;;;;;4302619;28;656984;-84
2022/03/27 14:11:33;;;;;;;7.22;1.50;;;17.20;1.00;;;;;;4341667;28;657462;-85
2022/03/27 14:14:21;;;;;;;7.27;1.60;;;17.20;1.00;;;;;;4312144;28;657142;-86
2022/03/27 14:17:09;;;;;;;3.57;1.33;;;17.30;1.00;;;;;;4326662;28;656778;-87
2022/03/27 14:19:57;;;;;;;4.13;1.20;;;17.10;1.00;;;;;;4308086;28;657376;-87
2022/03/27 14:22:46;;;;;;;4.00;1.40;;;17.00;1.00;;;;;;4324580;28;656635;-86
2022/03/27 14:25:33;;;;;;;4.70;1.63;;;17.10;1.00;;;;;;4337399;28;657292;-85
2022/03/27 14:28:21;;;;;;;5.80;1.73;;;16.50;1.00;;;;;;4320428;28;656958;-85
2022/03/27 14:31:09;;;;;;;3.70;1.63;;;16.60;1.00;;;;;;4336480;28;657572;-85
2022/03/27 14:33:58;;;;;;;4.00;1.30;;;16.50;1.00;;;;;;4312301;28;656915;-87
2022/03/27 14:36:45;;;;;;;11.47;1.80;;;16.20;1.00;;;;;;4321017;28;656709;-86
2022/03/27 14:39:33;;;;;;;5.07;1.70;;;16.20;1.00;;;;;;4330269;28;658223;-85
2022/03/27 14:42:20;;;;;;;8.97;1.83;;;17.70;1.00;;;;;;4324470;28;656622;-86
2022/03/27 14:45:09;;;;;;;3.90;1.40;;;18.50;1.00;;;;;;4337442;28;657665;-86
2022/03/27 14:47:56;;;;;;;5.60;1.37;;;18.30;1.00;;;;;;4314486;28;656553;-84
2022/03/27 14:50:45;;;;;;;4.43;1.83;;;18.50;1.00;;;;;;4327295;28;657329;-87
2022/03/27 14:55:57;;;;;;;8.70;2.03;;;18.50;1.00;;;;;;4308747;28;656909;-89
2022/03/27 14:56:39;;;;;;;4.47;1.70;;;19.50;1.00;;;;;;4323924;28;656408;-87